createdAt,value
2023-04-10T00:02:25.355Z,3.94
2023-04-10T00:05:51.369Z,4.06
2023-04-10T00:08:53.771Z,4.23
2023-04-10T00:12:24.451Z,4.35
2023-04-10T00:15:26.865Z,4.45
2023-04-10T00:18:29.526Z,4.51
2023-04-10T00:21:43.508Z,4.56
2023-04-10T00:24:54.405Z,4.59
2023-04-10T00:27:56.525Z,4.64
2023-04-10T00:31:07.460Z,4.72
2023-04-10T00:34:11.842Z,4.80
2023-04-10T00:37:34.312Z,4.85
2023-04-10T00:40:58.943Z,4.89
2023-04-10T00:44:00.816Z,4.90
2023-04-10T00:47:17.761Z,4.91
2023-04-10T00:50:40.979Z,4.92
2023-04-10T00:53:49.867Z,4.95
2023-04-10T00:57:12.303Z,4.97
2023-04-10T01:00:36.024Z,4.98
2023-04-10T01:03:47.438Z,4.99
2023-04-10T01:07:10.966Z,4.99
2023-04-10T01:10:38.093Z,4.98
2023-04-10T01:14:04.981Z,4.97
2023-04-10T01:17:14.185Z,4.93
2023-04-10T01:20:40.788Z,4.89
2023-04-10T01:24:30.327Z,4.80
2023-04-10T01:28:02.544Z,4.77
2023-04-10T01:31:09.927Z,4.74
2023-04-10T01:34:19.669Z,4.74
2023-04-10T01:37:28.832Z,4.76
2023-04-10T01:40:32.236Z,4.78
2023-04-10T01:43:54.814Z,4.78
2023-04-10T01:46:58.036Z,4.78
2023-04-10T01:50:04.114Z,4.80
2023-04-10T01:53:12.395Z,4.79
2023-04-10T01:56:24.799Z,4.78
2023-04-10T01:59:27.140Z,4.77
2023-04-10T02:02:33.999Z,4.76
2023-04-10T02:06:18.708Z,4.75
2023-04-10T02:09:47.147Z,4.76
2023-04-10T02:13:06.738Z,4.78
2023-04-10T02:16:22.150Z,4.80
2023-04-10T02:19:25.339Z,4.84
2023-04-10T02:22:34.245Z,4.86
2023-04-10T02:26:05.319Z,4.87
2023-04-10T02:29:08.328Z,4.90
2023-04-10T02:32:21.639Z,4.93
2023-04-10T02:35:43.765Z,4.95
2023-04-10T02:38:48.902Z,4.98
2023-04-10T02:41:50.741Z,5.01
2023-04-10T02:44:58.784Z,5.04
2023-04-10T02:48:00.550Z,5.05
2023-04-10T02:51:05.386Z,5.07
2023-04-10T02:54:27.563Z,5.09
2023-04-10T02:57:30.143Z,5.11
2023-04-10T03:00:32.231Z,5.13
2023-04-10T03:03:44.041Z,5.15
2023-04-10T03:06:46.237Z,5.17
2023-04-10T03:10:08.635Z,5.20
2023-04-10T03:13:10.413Z,5.21
2023-04-10T03:16:41.353Z,5.23
2023-04-10T03:20:03.982Z,5.26
2023-04-10T03:23:06.816Z,5.28
2023-04-10T03:26:29.090Z,5.29
2023-04-10T03:29:40.082Z,5.31
2023-04-10T03:32:42.299Z,5.32
2023-04-10T03:35:46.516Z,5.33
2023-04-10T03:38:48.513Z,5.34
2023-04-10T03:42:04.055Z,5.35
2023-04-10T03:45:26.710Z,5.36
2023-04-10T03:48:28.587Z,5.38
2023-04-10T03:51:53.160Z,5.38
2023-04-10T03:54:57.603Z,5.39
2023-04-10T03:58:00.186Z,5.40
2023-04-10T04:01:02.435Z,5.41
2023-04-10T04:04:07.873Z,5.39
2023-04-10T04:07:09.993Z,5.33
2023-04-10T04:10:17.067Z,5.23
2023-04-10T04:13:19.069Z,5.19
2023-04-10T04:16:42.351Z,5.20
2023-04-10T04:19:47.202Z,5.21
2023-04-10T04:23:01.751Z,5.23
2023-04-10T04:26:06.651Z,5.25
2023-04-10T04:29:17.733Z,5.27
2023-04-10T04:32:42.911Z,5.30
2023-04-10T04:35:44.550Z,5.32
2023-04-10T04:38:46.295Z,5.34
2023-04-10T04:41:47.760Z,5.36
2023-04-10T04:44:49.846Z,5.38
2023-04-10T04:47:51.395Z,5.45
2023-04-10T04:50:53.191Z,5.53
2023-04-10T04:53:54.886Z,5.58
2023-04-10T04:56:56.879Z,5.63
2023-04-10T04:59:58.658Z,5.65
2023-04-10T05:03:01.576Z,5.67
2023-04-10T05:06:03.485Z,5.70
2023-04-10T05:09:05.212Z,5.72
2023-04-10T05:12:06.838Z,5.72
2023-04-10T05:15:08.593Z,5.71
2023-04-10T05:18:10.599Z,5.70
2023-04-10T05:21:12.263Z,5.70
2023-04-10T05:24:13.804Z,5.71
2023-04-10T05:27:15.469Z,5.72
2023-04-10T05:30:16.971Z,5.74
2023-04-10T05:33:18.597Z,5.76
2023-04-10T05:36:20.105Z,5.77
2023-04-10T05:39:21.680Z,5.80
2023-04-10T05:42:24.023Z,5.84
2023-04-10T05:45:25.663Z,5.86
2023-04-10T05:48:27.162Z,5.88
2023-04-10T05:51:28.836Z,5.91
2023-04-10T05:54:30.389Z,5.94
2023-04-10T05:57:31.954Z,5.97
2023-04-10T06:00:33.490Z,5.99
2023-04-10T06:03:35.138Z,6.03
2023-04-10T06:06:36.932Z,6.06
2023-04-10T06:09:38.431Z,6.07
2023-04-10T06:12:39.938Z,6.09
2023-04-10T06:15:41.638Z,6.12
2023-04-10T06:18:43.270Z,6.14
2023-04-10T06:21:45.109Z,6.17
2023-04-10T06:24:46.959Z,6.18
2023-04-10T06:27:48.670Z,6.21
2023-04-10T06:30:50.129Z,6.22
2023-04-10T06:33:51.672Z,6.22
2023-04-10T06:36:53.153Z,6.23
2023-04-10T06:40:02.470Z,6.26
2023-04-10T06:43:03.996Z,6.27
2023-04-10T06:46:05.737Z,6.28
2023-04-10T06:49:07.520Z,6.29
2023-04-10T06:52:09.125Z,6.30
2023-04-10T06:55:10.708Z,6.31
2023-04-10T06:58:12.292Z,6.34
2023-04-10T07:01:13.884Z,6.39
2023-04-10T07:04:15.773Z,6.45
2023-04-10T07:07:17.790Z,6.51
2023-04-10T07:10:19.379Z,6.59
2023-04-10T07:13:20.800Z,6.68
2023-04-10T07:16:22.353Z,6.83
2023-04-10T07:19:23.855Z,7.00
2023-04-10T07:22:25.486Z,7.22
2023-04-10T07:25:27.212Z,7.39
2023-04-10T07:28:28.741Z,7.52
2023-04-10T07:31:30.294Z,7.62
2023-04-10T07:34:31.878Z,7.78
2023-04-10T07:37:33.496Z,7.84
2023-04-10T07:40:35.080Z,7.89
2023-04-10T07:43:36.704Z,7.96
2023-04-10T07:46:38.212Z,7.99
2023-04-10T07:49:39.746Z,7.98
2023-04-10T07:52:41.423Z,7.99
2023-04-10T07:55:44.847Z,8.02
2023-04-10T07:58:47.121Z,8.05
2023-04-10T08:01:48.916Z,8.00
2023-04-10T08:04:50.673Z,8.03
2023-04-10T08:07:52.424Z,8.10
2023-04-10T08:10:54.017Z,8.07
2023-04-10T08:13:57.593Z,8.14
2023-04-10T08:16:59.200Z,8.24
2023-04-10T08:20:00.869Z,8.25
2023-04-10T08:23:16.492Z,8.25
2023-04-10T08:26:22.009Z,8.27
2023-04-10T08:32:30.099Z,8.37
2023-04-10T08:35:31.738Z,8.33
2023-04-10T08:38:33.361Z,8.34
2023-04-10T08:41:34.860Z,8.45
2023-04-10T08:44:36.596Z,8.64
2023-04-10T08:47:38.887Z,8.73
2023-04-10T08:50:45.686Z,8.78
2023-04-10T08:53:51.965Z,8.87
2023-04-10T08:56:55.039Z,8.98
2023-04-10T08:59:59.483Z,9.00
2023-04-10T09:03:02.384Z,9.04
2023-04-10T09:06:05.053Z,9.24
2023-04-10T09:09:07.027Z,9.34
2023-04-10T09:12:08.709Z,9.27
2023-04-10T09:15:10.546Z,9.27
2023-04-10T09:18:12.092Z,9.24
2023-04-10T09:21:18.448Z,9.23
2023-04-10T09:24:19.941Z,9.29
2023-04-10T09:27:31.863Z,9.43
2023-04-10T09:30:41.498Z,9.41
2023-04-10T09:33:43.022Z,9.36
2023-04-10T09:36:55.075Z,9.44
2023-04-10T09:39:56.903Z,9.60
2023-04-10T09:42:58.488Z,9.65
2023-04-10T09:46:00.127Z,9.68
2023-04-10T09:49:01.816Z,9.78
2023-04-10T09:52:17.936Z,9.97
2023-04-10T09:55:19.561Z,10.17
2023-04-10T09:58:21.168Z,10.25
2023-04-10T10:01:22.844Z,10.45
2023-04-10T10:04:25.414Z,10.62
2023-04-10T10:07:27.676Z,10.52
2023-04-10T10:10:29.255Z,10.52
2023-04-10T10:13:36.696Z,10.68
2023-04-10T10:16:47.420Z,10.66
2023-04-10T10:19:56.718Z,10.63
2023-04-10T10:22:58.938Z,10.59
2023-04-10T10:26:02.495Z,10.64
2023-04-10T10:29:07.762Z,10.80
2023-04-10T10:32:09.405Z,10.93
2023-04-10T10:35:11.129Z,11.18
2023-04-10T10:38:13.062Z,11.98
2023-04-10T10:41:19.469Z,12.79
2023-04-10T10:44:34.362Z,13.35
2023-04-10T10:47:42.544Z,13.77
2023-04-10T10:50:51.896Z,14.02
2023-04-10T10:53:53.649Z,14.34
2023-04-10T10:56:55.370Z,14.57
2023-04-10T10:59:57.250Z,14.52
2023-04-10T11:03:08.022Z,14.25
2023-04-10T11:06:11.586Z,13.86
2023-04-10T11:09:49.874Z,13.72
2023-04-10T11:13:17.184Z,14.15
2023-04-10T11:16:20.573Z,14.85
2023-04-10T11:19:23.552Z,15.38
2023-04-10T11:22:25.591Z,16.17
2023-04-10T11:25:53.908Z,15.88
2023-04-10T11:28:55.608Z,15.23
2023-04-10T11:32:01.355Z,14.83
2023-04-10T11:35:04.808Z,14.54
2023-04-10T11:38:10.442Z,14.35
2023-04-10T11:41:12.187Z,14.03
2023-04-10T11:44:14.510Z,13.77
2023-04-10T11:47:16.633Z,14.14
2023-04-10T11:50:18.301Z,14.31
2023-04-10T11:53:21.204Z,14.20
2023-04-10T11:56:22.882Z,13.93
2023-04-10T11:59:25.696Z,13.64
2023-04-10T12:02:27.406Z,13.59
2023-04-10T12:05:47.389Z,13.72
2023-04-10T12:08:49.100Z,14.38
2023-04-10T12:11:52.145Z,14.71
2023-04-10T12:14:53.999Z,14.37
2023-04-10T12:17:55.884Z,14.07
2023-04-10T12:20:58.121Z,14.15
2023-04-10T12:23:59.814Z,14.62
2023-04-10T12:27:01.570Z,14.58
2023-04-10T12:30:07.911Z,14.94
2023-04-10T12:33:09.398Z,15.22
2023-04-10T12:36:21.440Z,15.49
2023-04-10T12:39:24.141Z,15.17
2023-04-10T12:42:25.873Z,15.14
2023-04-10T12:45:44.041Z,15.01
2023-04-10T12:48:45.657Z,15.25
2023-04-10T12:51:51.994Z,15.52
2023-04-10T12:54:53.674Z,15.76
2023-04-10T12:57:55.249Z,15.95
2023-04-10T13:00:58.980Z,16.36
2023-04-10T13:04:00.646Z,16.42
2023-04-10T13:07:02.211Z,16.25
2023-04-10T13:10:04.724Z,16.42
2023-04-10T13:13:06.375Z,16.66
2023-04-10T13:16:08.750Z,16.92
2023-04-10T13:19:10.318Z,17.01
2023-04-10T13:22:12.052Z,16.49
2023-04-10T13:25:13.740Z,16.39
2023-04-10T13:28:15.289Z,16.00
2023-04-10T13:31:17.162Z,15.20
2023-04-10T13:34:18.797Z,14.58
2023-04-10T13:37:20.675Z,14.13
2023-04-10T13:40:22.320Z,13.80
2023-04-10T13:43:23.921Z,13.48
2023-04-10T13:46:25.837Z,13.36
2023-04-10T13:49:27.496Z,13.39
2023-04-10T13:52:29.047Z,13.32
2023-04-10T13:55:30.771Z,13.29
2023-04-10T13:58:32.720Z,14.13
2023-04-10T14:01:34.511Z,15.29
2023-04-10T14:04:36.142Z,15.90
2023-04-10T14:07:37.718Z,15.10
2023-04-10T14:10:39.273Z,14.56
2023-04-10T14:13:40.963Z,14.70
2023-04-10T14:16:42.722Z,15.24
2023-04-10T14:19:44.380Z,15.61
2023-04-10T14:22:45.953Z,15.86
2023-04-10T14:25:47.905Z,15.79
2023-04-10T14:28:49.500Z,15.65
2023-04-10T14:31:57.499Z,15.53
2023-04-10T14:35:00.116Z,15.47
2023-04-10T14:38:01.859Z,15.22
2023-04-10T14:41:03.511Z,14.83
2023-04-10T14:44:05.202Z,14.82
2023-04-10T14:47:06.993Z,14.68
2023-04-10T14:50:08.964Z,14.23
2023-04-10T14:53:10.520Z,13.86
2023-04-10T14:56:13.254Z,13.52
2023-04-10T14:59:15.781Z,12.84
2023-04-10T15:02:17.443Z,12.00
2023-04-10T15:05:19.154Z,11.50
2023-04-10T15:08:20.886Z,11.11
2023-04-10T15:11:22.438Z,10.86
2023-04-10T15:14:24.274Z,10.59
2023-04-10T15:17:25.880Z,10.23
2023-04-10T15:20:27.664Z,9.83
2023-04-10T15:23:29.531Z,9.50
2023-04-10T15:26:31.169Z,9.22
2023-04-10T15:29:38.061Z,8.99
2023-04-10T15:32:39.663Z,8.86
2023-04-10T15:35:41.474Z,8.67
2023-04-10T15:38:43.287Z,8.43
2023-04-10T15:41:44.786Z,8.26
2023-04-10T15:44:48.575Z,8.14
2023-04-10T15:47:50.557Z,8.03
2023-04-10T15:50:52.226Z,7.97
2023-04-10T15:53:54.037Z,7.96
2023-04-10T15:56:55.773Z,7.94
2023-04-10T15:59:57.304Z,7.94
2023-04-10T16:02:59.223Z,7.94
2023-04-10T16:06:00.970Z,7.96
2023-04-10T16:09:04.722Z,7.98
2023-04-10T16:12:11.214Z,8.04
2023-04-10T16:15:13.229Z,8.12
2023-04-10T16:18:15.052Z,8.19
2023-04-10T16:21:16.745Z,8.13
2023-04-10T16:24:18.527Z,8.17
2023-04-10T16:27:20.341Z,8.36
2023-04-10T16:30:22.371Z,8.58
2023-04-10T16:33:24.040Z,8.72
2023-04-10T16:36:25.641Z,8.81
2023-04-10T16:39:27.142Z,8.82
2023-04-10T16:42:28.717Z,8.88
2023-04-10T16:45:30.269Z,9.03
2023-04-10T16:48:32.636Z,9.17
2023-04-10T16:51:35.318Z,9.29
2023-04-10T16:54:36.868Z,9.32
2023-04-10T16:57:38.247Z,9.33
2023-04-10T17:00:39.994Z,9.30
2023-04-10T17:03:42.358Z,9.31
2023-04-10T17:06:43.950Z,9.36
2023-04-10T17:09:45.738Z,9.20
2023-04-10T17:12:47.408Z,8.92
2023-04-10T17:15:49.182Z,8.59
2023-04-10T17:18:50.930Z,8.31
2023-04-10T17:21:52.688Z,8.04
2023-04-10T17:24:54.280Z,7.82
2023-04-10T17:27:56.959Z,7.63
2023-04-10T17:30:58.689Z,7.50
2023-04-10T17:34:00.302Z,7.37
2023-04-10T17:37:02.488Z,7.28
2023-04-10T17:40:04.626Z,7.18
2023-04-10T17:43:06.457Z,7.10
2023-04-10T17:46:13.120Z,7.03
2023-04-10T17:49:14.756Z,6.93
2023-04-10T17:52:16.339Z,6.85
2023-04-10T17:55:18.144Z,6.81
2023-04-10T17:58:22.323Z,6.78
2023-04-10T18:01:24.300Z,6.79
2023-04-10T18:04:26.106Z,6.79
2023-04-10T18:07:28.988Z,6.80
2023-04-10T18:10:30.616Z,6.80
2023-04-10T18:13:33.738Z,6.78
2023-04-10T18:16:35.532Z,6.73
2023-04-10T18:19:37.263Z,6.70
2023-04-10T18:22:39.055Z,6.63
2023-04-10T18:25:40.721Z,6.64
2023-04-10T18:28:42.424Z,6.63
2023-04-10T18:31:44.127Z,6.62
2023-04-10T18:34:45.921Z,6.61
2023-04-10T18:37:47.528Z,6.61
2023-04-10T18:40:49.029Z,6.60
2023-04-10T18:44:01.625Z,6.61
2023-04-10T18:47:07.081Z,6.61
2023-04-10T18:50:09.161Z,6.62
2023-04-10T18:53:10.964Z,6.63
2023-04-10T18:56:12.686Z,6.62
2023-04-10T18:59:14.373Z,6.57
2023-04-10T19:02:16.265Z,6.54
2023-04-10T19:05:18.188Z,6.52
2023-04-10T19:08:21.028Z,6.43
2023-04-10T19:11:22.775Z,6.34
2023-04-10T19:14:24.225Z,6.24
2023-04-10T19:17:25.971Z,6.13
2023-04-10T19:20:52.650Z,5.99
2023-04-10T19:23:49.259Z,5.79
2023-04-10T19:26:53.591Z,5.75
2023-04-10T19:29:56.281Z,5.75
2023-04-10T19:32:57.832Z,5.74
2023-04-10T19:35:59.586Z,5.73
2023-04-10T19:39:01.436Z,5.70
2023-04-10T19:42:03.393Z,5.66
2023-04-10T19:45:05.794Z,5.59
2023-04-10T19:48:07.434Z,5.47
2023-04-10T19:51:08.940Z,5.34
2023-04-10T19:54:10.821Z,5.20
2023-04-10T19:57:12.445Z,5.15
2023-04-10T20:00:14.366Z,5.17
2023-04-10T20:03:16.225Z,5.22
2023-04-10T20:06:18.130Z,5.23
2023-04-10T20:09:20.164Z,5.19
2023-04-10T20:12:21.799Z,5.12
2023-04-10T20:15:23.436Z,5.08
2023-04-10T20:18:25.053Z,5.11
2023-04-10T20:21:26.677Z,5.10
2023-04-10T20:24:28.311Z,5.08
2023-04-10T20:27:30.212Z,5.03
2023-04-10T20:30:32.053Z,4.95
2023-04-10T20:33:35.140Z,4.89
2023-04-10T20:36:36.996Z,4.95
2023-04-10T20:39:38.599Z,4.96
2023-04-10T20:42:43.012Z,4.96
2023-04-10T20:45:44.588Z,4.95
2023-04-10T20:48:46.096Z,4.93
2023-04-10T20:51:47.608Z,4.91
2023-04-10T20:54:49.363Z,4.90
2023-04-10T20:57:51.186Z,4.86
2023-04-10T21:00:53.561Z,4.83
2023-04-10T21:03:55.790Z,4.75
2023-04-10T21:06:57.406Z,4.66
2023-04-10T21:09:58.827Z,4.60
2023-04-10T21:13:02.338Z,4.54
2023-04-10T21:16:04.383Z,4.52
2023-04-10T21:19:05.910Z,4.55
2023-04-10T21:22:07.583Z,4.44
2023-04-10T21:25:09.441Z,4.23
2023-04-10T21:28:10.934Z,4.16
2023-04-10T21:31:12.436Z,4.03
2023-04-10T21:34:14.009Z,4.00
2023-04-10T21:37:15.516Z,3.98
2023-04-10T21:40:17.048Z,3.96
2023-04-10T21:43:19.846Z,3.56
2023-04-10T21:46:21.608Z,3.30
2023-04-10T21:49:23.193Z,3.25
2023-04-10T21:52:24.884Z,3.23
2023-04-10T21:55:26.341Z,3.20
2023-04-10T21:58:27.879Z,3.21
2023-04-10T22:01:29.470Z,3.20
2023-04-10T22:04:31.894Z,3.15
2023-04-10T22:07:34.647Z,3.16
2023-04-10T22:10:36.194Z,3.33
2023-04-10T22:13:37.738Z,3.55
2023-04-10T22:16:39.441Z,3.68
2023-04-10T22:19:40.920Z,3.68
2023-04-10T22:22:42.443Z,3.72
2023-04-10T22:25:44.065Z,3.74
2023-04-10T22:28:45.898Z,3.71
2023-04-10T22:31:47.531Z,3.70
2023-04-10T22:34:48.942Z,3.59
2023-04-10T22:37:50.996Z,3.46
2023-04-10T22:40:58.636Z,3.40
2023-04-10T22:44:00.295Z,3.31
2023-04-10T22:47:01.791Z,3.25
2023-04-10T22:50:03.575Z,3.19
2023-04-10T22:53:05.250Z,3.22
2023-04-10T22:56:07.344Z,3.25
2023-04-10T22:59:09.318Z,3.17
2023-04-10T23:02:11.055Z,3.09
2023-04-10T23:05:12.797Z,2.97
2023-04-10T23:08:14.367Z,2.87
2023-04-10T23:11:15.897Z,2.77
2023-04-10T23:14:17.498Z,2.80
2023-04-10T23:17:19.937Z,2.87
2023-04-10T23:20:21.503Z,2.89
2023-04-10T23:23:23.033Z,2.89
2023-04-10T23:26:24.651Z,2.78
2023-04-10T23:29:26.167Z,2.70
2023-04-10T23:32:27.844Z,2.61
2023-04-10T23:35:29.562Z,2.57
2023-04-10T23:38:31.062Z,2.62
2023-04-10T23:41:33.236Z,2.72
2023-04-10T23:44:34.791Z,2.77
2023-04-10T23:47:36.340Z,2.73
2023-04-10T23:50:38.164Z,2.68
2023-04-10T23:53:39.629Z,2.72
2023-04-10T23:56:41.321Z,2.77
2023-04-10T23:59:43.329Z,2.84
